sensor_id;sensor_type;location;lat;lon;timestamp;temperature;humidity
3208;DHT22;1616;52.394;9.756;2023-12-22T00:00:38;5.20;99.90
3208;DHT22;1616;52.394;9.756;2023-12-22T00:03:04;5.30;99.90
3208;DHT22;1616;52.394;9.756;2023-12-22T00:05:29;5.30;99.90
3208;DHT22;1616;52.394;9.756;2023-12-22T00:07:57;5.30;99.90
3208;DHT22;1616;52.394;9.756;2023-12-22T00:10:23;5.30;99.90
3208;DHT22;1616;52.394;9.756;2023-12-22T00:12:48;5.30;99.90
3208;DHT22;1616;52.394;9.756;2023-12-22T00:15:14;5.30;99.90
3208;DHT22;1616;52.394;9.756;2023-12-22T00:17:39;5.30;99.90
3208;DHT22;1616;52.394;9.756;2023-12-22T00:20:06;5.30;99.90
3208;DHT22;1616;52.394;9.756;2023-12-22T00:22:32;5.30;99.90
3208;DHT22;1616;52.394;9.756;2023-12-22T00:24:58;5.40;99.90
3208;DHT22;1616;52.394;9.756;2023-12-22T00:27:23;5.40;99.90
3208;DHT22;1616;52.394;9.756;2023-12-22T00:29:49;5.40;99.90
3208;DHT22;1616;52.394;9.756;2023-12-22T00:32:16;5.50;99.90
3208;DHT22;1616;52.394;9.756;2023-12-22T00:34:41;5.50;99.90
3208;DHT22;1616;52.394;9.756;2023-12-22T00:37:07;5.60;99.90
3208;DHT22;1616;52.394;9.756;2023-12-22T00:39:32;5.60;99.90
3208;DHT22;1616;52.394;9.756;2023-12-22T00:41:58;5.70;99.90
3208;DHT22;1616;52.394;9.756;2023-12-22T00:44:23;5.70;99.90
3208;DHT22;1616;52.394;9.756;2023-12-22T00:46:52;5.60;99.90
3208;DHT22;1616;52.394;9.756;2023-12-22T00:49:18;5.60;99.90
3208;DHT22;1616;52.394;9.756;2023-12-22T00:51:44;5.60;99.90
3208;DHT22;1616;52.394;9.756;2023-12-22T00:54:09;5.60;99.90
3208;DHT22;1616;52.394;9.756;2023-12-22T00:56:35;5.60;99.90
3208;DHT22;1616;52.394;9.756;2023-12-22T00:59:01;5.60;99.90
3208;DHT22;1616;52.394;9.756;2023-12-22T01:01:26;5.60;99.90
3208;DHT22;1616;52.394;9.756;2023-12-22T01:03:52;5.70;99.90
3208;DHT22;1616;52.394;9.756;2023-12-22T01:06:17;5.70;99.90
3208;DHT22;1616;52.394;9.756;2023-12-22T01:08:43;5.70;99.90
3208;DHT22;1616;52.394;9.756;2023-12-22T01:11:09;5.60;99.90
3208;DHT22;1616;52.394;9.756;2023-12-22T01:13:35;5.60;99.90
3208;DHT22;1616;52.394;9.756;2023-12-22T01:16:00;5.60;99.90
3208;DHT22;1616;52.394;9.756;2023-12-22T01:18:26;5.50;99.90
3208;DHT22;1616;52.394;9.756;2023-12-22T01:20:54;5.50;99.90
3208;DHT22;1616;52.394;9.756;2023-12-22T01:23:19;5.40;99.90
3208;DHT22;1616;52.394;9.756;2023-12-22T01:25:45;5.40;99.90
3208;DHT22;1616;52.394;9.756;2023-12-22T01:28:11;5.30;99.90
3208;DHT22;1616;52.394;9.756;2023-12-22T01:30:36;5.30;99.90
3208;DHT22;1616;52.394;9.756;2023-12-22T01:33:02;5.20;99.90
3208;DHT22;1616;52.394;9.756;2023-12-22T01:35:28;5.20;99.90
3208;DHT22;1616;52.394;9.756;2023-12-22T01:37:54;5.10;99.90
3208;DHT22;1616;52.394;9.756;2023-12-22T01:40:20;5.10;99.90
3208;DHT22;1616;52.394;9.756;2023-12-22T01:42:45;5.10;99.90
3208;DHT22;1616;52.394;9.756;2023-12-22T01:45:11;5.10;99.90
3208;DHT22;1616;52.394;9.756;2023-12-22T01:47:37;4.90;99.90
3208;DHT22;1616;52.394;9.756;2023-12-22T01:50:03;5.00;99.90
3208;DHT22;1616;52.394;9.756;2023-12-22T01:52:29;4.90;99.90
3208;DHT22;1616;52.394;9.756;2023-12-22T01:54:55;4.90;99.90
3208;DHT22;1616;52.394;9.756;2023-12-22T01:57:21;4.90;99.90
3208;DHT22;1616;52.394;9.756;2023-12-22T01:59:48;4.80;99.90
3208;DHT22;1616;52.394;9.756;2023-12-22T02:02:14;4.80;99.90
3208;DHT22;1616;52.394;9.756;2023-12-22T02:04:40;4.70;99.90
3208;DHT22;1616;52.394;9.756;2023-12-22T02:07:06;4.70;99.90
3208;DHT22;1616;52.394;9.756;2023-12-22T02:09:34;4.60;99.90
3208;DHT22;1616;52.394;9.756;2023-12-22T02:12:01;4.60;99.90
3208;DHT22;1616;52.394;9.756;2023-12-22T02:14:27;4.60;99.90
3208;DHT22;1616;52.394;9.756;2023-12-22T02:17:14;4.70;99.90
3208;DHT22;1616;52.394;9.756;2023-12-22T02:19:43;4.70;99.90
3208;DHT22;1616;52.394;9.756;2023-12-22T02:22:10;4.70;99.90
3208;DHT22;1616;52.394;9.756;2023-12-22T02:24:37;4.70;99.90
3208;DHT22;1616;52.394;9.756;2023-12-22T02:29:37;4.80;99.90
3208;DHT22;1616;52.394;9.756;2023-12-22T02:32:07;4.80;99.90
3208;DHT22;1616;52.394;9.756;2023-12-22T02:34:36;4.80;99.90
3208;DHT22;1616;52.394;9.756;2023-12-22T02:37:07;4.80;99.90
3208;DHT22;1616;52.394;9.756;2023-12-22T02:39:35;4.80;99.90
3208;DHT22;1616;52.394;9.756;2023-12-22T02:42:02;4.80;99.90
3208;DHT22;1616;52.394;9.756;2023-12-22T02:44:28;4.80;99.90
3208;DHT22;1616;52.394;9.756;2023-12-22T02:46:53;4.70;99.90
3208;DHT22;1616;52.394;9.756;2023-12-22T02:49:19;4.70;99.90
3208;DHT22;1616;52.394;9.756;2023-12-22T02:51:45;4.60;99.90
3208;DHT22;1616;52.394;9.756;2023-12-22T02:54:10;4.50;99.90
3208;DHT22;1616;52.394;9.756;2023-12-22T02:56:36;4.50;99.90
3208;DHT22;1616;52.394;9.756;2023-12-22T02:59:02;4.50;99.90
3208;DHT22;1616;52.394;9.756;2023-12-22T03:01:27;4.50;99.90
3208;DHT22;1616;52.394;9.756;2023-12-22T03:03:53;4.50;99.90
3208;DHT22;1616;52.394;9.756;2023-12-22T03:06:18;4.50;99.90
3208;DHT22;1616;52.394;9.756;2023-12-22T03:08:44;4.50;99.90
3208;DHT22;1616;52.394;9.756;2023-12-22T03:11:10;4.50;99.90
3208;DHT22;1616;52.394;9.756;2023-12-22T03:13:35;4.40;99.90
3208;DHT22;1616;52.394;9.756;2023-12-22T03:16:01;4.40;99.90
3208;DHT22;1616;52.394;9.756;2023-12-22T03:18:26;4.40;99.90
3208;DHT22;1616;52.394;9.756;2023-12-22T03:20:52;4.40;99.90
3208;DHT22;1616;52.394;9.756;2023-12-22T03:23:17;4.40;99.90
3208;DHT22;1616;52.394;9.756;2023-12-22T03:25:43;4.50;99.90
3208;DHT22;1616;52.394;9.756;2023-12-22T03:28:08;4.50;99.90
3208;DHT22;1616;52.394;9.756;2023-12-22T03:30:34;4.50;99.90
3208;DHT22;1616;52.394;9.756;2023-12-22T03:33:01;4.50;99.90
3208;DHT22;1616;52.394;9.756;2023-12-22T03:35:27;4.50;99.90
3208;DHT22;1616;52.394;9.756;2023-12-22T03:37:52;4.50;99.90
3208;DHT22;1616;52.394;9.756;2023-12-22T03:40:18;4.50;99.90
3208;DHT22;1616;52.394;9.756;2023-12-22T03:42:43;4.50;99.90
3208;DHT22;1616;52.394;9.756;2023-12-22T03:45:09;4.50;99.90
3208;DHT22;1616;52.394;9.756;2023-12-22T03:47:35;4.50;99.90
3208;DHT22;1616;52.394;9.756;2023-12-22T03:50:00;4.50;99.90
3208;DHT22;1616;52.394;9.756;2023-12-22T03:52:26;4.50;99.90
3208;DHT22;1616;52.394;9.756;2023-12-22T03:54:51;4.50;99.90
3208;DHT22;1616;52.394;9.756;2023-12-22T03:57:17;4.50;99.90
3208;DHT22;1616;52.394;9.756;2023-12-22T03:59:42;4.50;99.90
3208;DHT22;1616;52.394;9.756;2023-12-22T04:02:08;4.50;99.90
3208;DHT22;1616;52.394;9.756;2023-12-22T04:04:38;4.30;99.90
3208;DHT22;1616;52.394;9.756;2023-12-22T04:07:03;4.40;99.90
3208;DHT22;1616;52.394;9.756;2023-12-22T04:09:29;4.50;99.90
3208;DHT22;1616;52.394;9.756;2023-12-22T04:11:55;4.50;99.90
3208;DHT22;1616;52.394;9.756;2023-12-22T04:14:21;4.50;99.90
3208;DHT22;1616;52.394;9.756;2023-12-22T04:16:47;4.50;99.90
3208;DHT22;1616;52.394;9.756;2023-12-22T04:19:12;4.40;99.90
3208;DHT22;1616;52.394;9.756;2023-12-22T04:21:38;4.40;99.90
3208;DHT22;1616;52.394;9.756;2023-12-22T04:24:04;4.30;99.90
3208;DHT22;1616;52.394;9.756;2023-12-22T04:26:30;4.30;99.90
3208;DHT22;1616;52.394;9.756;2023-12-22T04:28:56;4.30;99.90
3208;DHT22;1616;52.394;9.756;2023-12-22T04:31:21;4.30;99.90
3208;DHT22;1616;52.394;9.756;2023-12-22T04:33:47;4.30;99.90
3208;DHT22;1616;52.394;9.756;2023-12-22T04:36:12;4.40;99.90
3208;DHT22;1616;52.394;9.756;2023-12-22T04:38:38;4.40;99.90
3208;DHT22;1616;52.394;9.756;2023-12-22T04:41:05;4.40;99.90
3208;DHT22;1616;52.394;9.756;2023-12-22T04:43:31;4.50;99.90
3208;DHT22;1616;52.394;9.756;2023-12-22T04:45:57;4.30;99.90
3208;DHT22;1616;52.394;9.756;2023-12-22T04:48:22;4.30;99.90
3208;DHT22;1616;52.394;9.756;2023-12-22T04:50:48;4.30;99.90
3208;DHT22;1616;52.394;9.756;2023-12-22T04:53:15;4.30;99.90
3208;DHT22;1616;52.394;9.756;2023-12-22T04:55:40;4.30;99.90
3208;DHT22;1616;52.394;9.756;2023-12-22T04:58:06;4.20;99.90
3208;DHT22;1616;52.394;9.756;2023-12-22T05:00:31;4.30;99.90
3208;DHT22;1616;52.394;9.756;2023-12-22T05:02:57;4.40;99.90
3208;DHT22;1616;52.394;9.756;2023-12-22T05:05:22;4.30;99.90
3208;DHT22;1616;52.394;9.756;2023-12-22T05:07:49;4.20;99.90
3208;DHT22;1616;52.394;9.756;2023-12-22T05:10:15;4.20;99.90
3208;DHT22;1616;52.394;9.756;2023-12-22T05:12:40;4.20;99.90
3208;DHT22;1616;52.394;9.756;2023-12-22T05:15:06;4.20;99.90
3208;DHT22;1616;52.394;9.756;2023-12-22T05:17:32;4.20;99.90
3208;DHT22;1616;52.394;9.756;2023-12-22T05:19:59;4.30;99.90
3208;DHT22;1616;52.394;9.756;2023-12-22T05:22:24;4.20;99.90
3208;DHT22;1616;52.394;9.756;2023-12-22T05:24:50;4.20;99.90
3208;DHT22;1616;52.394;9.756;2023-12-22T05:27:15;4.20;99.90
3208;DHT22;1616;52.394;9.756;2023-12-22T05:29:42;4.20;99.90
3208;DHT22;1616;52.394;9.756;2023-12-22T05:32:08;4.20;99.90
3208;DHT22;1616;52.394;9.756;2023-12-22T05:34:33;4.30;99.90
3208;DHT22;1616;52.394;9.756;2023-12-22T05:36:59;4.30;99.90
3208;DHT22;1616;52.394;9.756;2023-12-22T05:39:24;4.40;99.90
3208;DHT22;1616;52.394;9.756;2023-12-22T05:41:50;4.40;99.90
3208;DHT22;1616;52.394;9.756;2023-12-22T05:44:16;4.40;99.90
3208;DHT22;1616;52.394;9.756;2023-12-22T05:46:42;4.40;99.90
3208;DHT22;1616;52.394;9.756;2023-12-22T05:49:07;4.40;99.90
3208;DHT22;1616;52.394;9.756;2023-12-22T05:51:39;4.40;99.90
3208;DHT22;1616;52.394;9.756;2023-12-22T05:54:09;4.40;99.90
3208;DHT22;1616;52.394;9.756;2023-12-22T05:56:35;4.40;99.90
3208;DHT22;1616;52.394;9.756;2023-12-22T05:59:01;4.30;99.90
3208;DHT22;1616;52.394;9.756;2023-12-22T06:01:27;4.40;99.90
3208;DHT22;1616;52.394;9.756;2023-12-22T06:03:52;4.40;99.90
3208;DHT22;1616;52.394;9.756;2023-12-22T06:06:19;4.40;99.90
3208;DHT22;1616;52.394;9.756;2023-12-22T06:08:45;4.50;99.90
3208;DHT22;1616;52.394;9.756;2023-12-22T06:11:10;4.50;99.90
3208;DHT22;1616;52.394;9.756;2023-12-22T06:13:36;4.50;99.90
3208;DHT22;1616;52.394;9.756;2023-12-22T06:16:02;4.50;99.90
3208;DHT22;1616;52.394;9.756;2023-12-22T06:18:28;4.60;99.90
3208;DHT22;1616;52.394;9.756;2023-12-22T06:20:53;4.60;99.90
3208;DHT22;1616;52.394;9.756;2023-12-22T06:23:20;4.60;99.90
3208;DHT22;1616;52.394;9.756;2023-12-22T06:25:45;4.60;99.90
3208;DHT22;1616;52.394;9.756;2023-12-22T06:28:12;4.60;99.90
3208;DHT22;1616;52.394;9.756;2023-12-22T06:30:39;4.50;99.90
3208;DHT22;1616;52.394;9.756;2023-12-22T06:33:04;4.50;99.90
3208;DHT22;1616;52.394;9.756;2023-12-22T06:35:30;4.40;99.90
3208;DHT22;1616;52.394;9.756;2023-12-22T06:37:57;4.30;99.90
3208;DHT22;1616;52.394;9.756;2023-12-22T06:40:29;4.30;99.90
3208;DHT22;1616;52.394;9.756;2023-12-22T06:42:55;4.20;99.90
3208;DHT22;1616;52.394;9.756;2023-12-22T06:45:21;4.10;99.90
3208;DHT22;1616;52.394;9.756;2023-12-22T06:47:46;4.10;99.90
3208;DHT22;1616;52.394;9.756;2023-12-22T06:50:12;4.00;99.90
3208;DHT22;1616;52.394;9.756;2023-12-22T06:52:37;3.90;99.90
3208;DHT22;1616;52.394;9.756;2023-12-22T06:55:03;3.90;99.90
3208;DHT22;1616;52.394;9.756;2023-12-22T06:57:29;3.90;99.90
3208;DHT22;1616;52.394;9.756;2023-12-22T06:59:54;3.90;99.90
3208;DHT22;1616;52.394;9.756;2023-12-22T07:02:20;3.90;99.90
3208;DHT22;1616;52.394;9.756;2023-12-22T07:07:48;4.50;99.90
3208;DHT22;1616;52.394;9.756;2023-12-22T07:10:14;4.50;99.90
3208;DHT22;1616;52.394;9.756;2023-12-22T07:12:40;4.40;99.90
3208;DHT22;1616;52.394;9.756;2023-12-22T07:15:06;4.40;99.90
3208;DHT22;1616;52.394;9.756;2023-12-22T07:17:32;4.40;99.90
3208;DHT22;1616;52.394;9.756;2023-12-22T07:19:58;4.30;99.90
3208;DHT22;1616;52.394;9.756;2023-12-22T07:22:24;4.30;99.90
3208;DHT22;1616;52.394;9.756;2023-12-22T07:24:50;4.30;99.90
3208;DHT22;1616;52.394;9.756;2023-12-22T07:27:18;4.40;99.90
3208;DHT22;1616;52.394;9.756;2023-12-22T07:29:44;4.40;99.90
3208;DHT22;1616;52.394;9.756;2023-12-22T07:32:09;4.30;99.90
3208;DHT22;1616;52.394;9.756;2023-12-22T07:34:35;4.10;99.90
3208;DHT22;1616;52.394;9.756;2023-12-22T07:37:01;4.00;99.90
3208;DHT22;1616;52.394;9.756;2023-12-22T07:39:27;4.00;99.90
3208;DHT22;1616;52.394;9.756;2023-12-22T07:41:52;3.90;99.90
3208;DHT22;1616;52.394;9.756;2023-12-22T07:44:18;3.90;99.90
3208;DHT22;1616;52.394;9.756;2023-12-22T07:46:43;3.90;99.90
3208;DHT22;1616;52.394;9.756;2023-12-22T07:49:09;4.00;99.90
3208;DHT22;1616;52.394;9.756;2023-12-22T07:51:34;4.00;99.90
3208;DHT22;1616;52.394;9.756;2023-12-22T07:54:00;4.10;99.90
3208;DHT22;1616;52.394;9.756;2023-12-22T07:56:25;4.10;99.90
3208;DHT22;1616;52.394;9.756;2023-12-22T07:58:51;4.20;99.90
3208;DHT22;1616;52.394;9.756;2023-12-22T08:01:16;4.30;99.90
3208;DHT22;1616;52.394;9.756;2023-12-22T08:03:42;4.30;99.90
3208;DHT22;1616;52.394;9.756;2023-12-22T08:06:08;4.40;99.90
3208;DHT22;1616;52.394;9.756;2023-12-22T08:08:33;4.50;99.90
3208;DHT22;1616;52.394;9.756;2023-12-22T08:11:00;4.50;99.90
3208;DHT22;1616;52.394;9.756;2023-12-22T08:13:25;4.60;99.90
3208;DHT22;1616;52.394;9.756;2023-12-22T08:15:51;4.60;99.90
3208;DHT22;1616;52.394;9.756;2023-12-22T08:18:16;4.70;99.90
3208;DHT22;1616;52.394;9.756;2023-12-22T08:20:42;4.70;99.90
3208;DHT22;1616;52.394;9.756;2023-12-22T08:23:08;4.70;99.90
3208;DHT22;1616;52.394;9.756;2023-12-22T08:25:34;4.80;99.90
3208;DHT22;1616;52.394;9.756;2023-12-22T08:27:59;4.90;99.90
3208;DHT22;1616;52.394;9.756;2023-12-22T08:30:26;5.00;99.90
3208;DHT22;1616;52.394;9.756;2023-12-22T08:32:52;5.10;99.90
3208;DHT22;1616;52.394;9.756;2023-12-22T08:35:17;5.10;99.90
3208;DHT22;1616;52.394;9.756;2023-12-22T08:37:43;5.20;99.90
3208;DHT22;1616;52.394;9.756;2023-12-22T08:40:09;5.30;99.90
3208;DHT22;1616;52.394;9.756;2023-12-22T08:42:35;5.30;99.90
3208;DHT22;1616;52.394;9.756;2023-12-22T08:45:00;5.40;99.90
3208;DHT22;1616;52.394;9.756;2023-12-22T08:47:26;5.50;99.90
3208;DHT22;1616;52.394;9.756;2023-12-22T08:49:51;5.60;99.90
3208;DHT22;1616;52.394;9.756;2023-12-22T08:52:17;5.80;99.90
3208;DHT22;1616;52.394;9.756;2023-12-22T08:54:42;5.80;99.90
3208;DHT22;1616;52.394;9.756;2023-12-22T08:57:08;6.00;99.90
3208;DHT22;1616;52.394;9.756;2023-12-22T08:59:34;6.30;99.90
3208;DHT22;1616;52.394;9.756;2023-12-22T09:02:00;6.30;99.90
3208;DHT22;1616;52.394;9.756;2023-12-22T09:04:25;6.20;99.90
3208;DHT22;1616;52.394;9.756;2023-12-22T09:06:51;6.20;99.90
3208;DHT22;1616;52.394;9.756;2023-12-22T09:09:17;6.20;99.90
3208;DHT22;1616;52.394;9.756;2023-12-22T09:11:42;6.20;99.90
3208;DHT22;1616;52.394;9.756;2023-12-22T09:14:08;6.20;99.90
3208;DHT22;1616;52.394;9.756;2023-12-22T09:16:37;6.30;99.90
3208;DHT22;1616;52.394;9.756;2023-12-22T09:19:04;6.40;99.90
3208;DHT22;1616;52.394;9.756;2023-12-22T09:21:30;6.40;99.90
3208;DHT22;1616;52.394;9.756;2023-12-22T09:23:55;6.50;99.90
3208;DHT22;1616;52.394;9.756;2023-12-22T09:26:21;6.60;99.90
3208;DHT22;1616;52.394;9.756;2023-12-22T09:28:47;6.70;99.90
3208;DHT22;1616;52.394;9.756;2023-12-22T09:31:13;6.90;99.90
3208;DHT22;1616;52.394;9.756;2023-12-22T09:33:40;7.00;99.90
3208;DHT22;1616;52.394;9.756;2023-12-22T09:36:06;7.10;99.90
3208;DHT22;1616;52.394;9.756;2023-12-22T09:38:32;7.20;99.90
3208;DHT22;1616;52.394;9.756;2023-12-22T09:40:58;7.20;99.90
3208;DHT22;1616;52.394;9.756;2023-12-22T09:43:24;7.20;99.90
3208;DHT22;1616;52.394;9.756;2023-12-22T09:45:50;7.20;99.90
3208;DHT22;1616;52.394;9.756;2023-12-22T09:48:20;7.30;99.90
3208;DHT22;1616;52.394;9.756;2023-12-22T09:50:52;7.60;99.90
3208;DHT22;1616;52.394;9.756;2023-12-22T09:53:20;8.00;99.90
3208;DHT22;1616;52.394;9.756;2023-12-22T09:55:46;8.20;99.90
3208;DHT22;1616;52.394;9.756;2023-12-22T09:58:13;8.30;99.90
3208;DHT22;1616;52.394;9.756;2023-12-22T10:00:45;8.30;99.90
3208;DHT22;1616;52.394;9.756;2023-12-22T10:03:12;8.20;99.90
3208;DHT22;1616;52.394;9.756;2023-12-22T10:05:39;8.10;99.90
3208;DHT22;1616;52.394;9.756;2023-12-22T10:08:06;8.00;99.90
3208;DHT22;1616;52.394;9.756;2023-12-22T10:10:32;7.90;99.90
3208;DHT22;1616;52.394;9.756;2023-12-22T10:13:01;7.80;99.90
3208;DHT22;1616;52.394;9.756;2023-12-22T10:15:29;7.70;99.90
3208;DHT22;1616;52.394;9.756;2023-12-22T10:17:56;7.50;99.90
3208;DHT22;1616;52.394;9.756;2023-12-22T10:20:21;7.50;99.90
3208;DHT22;1616;52.394;9.756;2023-12-22T10:22:47;7.40;99.90
3208;DHT22;1616;52.394;9.756;2023-12-22T10:25:20;7.30;99.90
3208;DHT22;1616;52.394;9.756;2023-12-22T10:27:46;7.20;99.90
3208;DHT22;1616;52.394;9.756;2023-12-22T10:30:12;7.20;99.90
3208;DHT22;1616;52.394;9.756;2023-12-22T10:32:41;7.00;99.90
3208;DHT22;1616;52.394;9.756;2023-12-22T10:35:08;6.80;99.90
3208;DHT22;1616;52.394;9.756;2023-12-22T10:37:34;6.60;99.90
3208;DHT22;1616;52.394;9.756;2023-12-22T10:40:00;6.40;99.90
3208;DHT22;1616;52.394;9.756;2023-12-22T10:42:26;6.20;99.90
3208;DHT22;1616;52.394;9.756;2023-12-22T10:44:52;6.10;99.90
3208;DHT22;1616;52.394;9.756;2023-12-22T10:47:18;6.00;99.90
3208;DHT22;1616;52.394;9.756;2023-12-22T10:49:48;5.90;99.90
3208;DHT22;1616;52.394;9.756;2023-12-22T10:52:17;5.80;99.90
3208;DHT22;1616;52.394;9.756;2023-12-22T10:54:46;5.80;99.90
3208;DHT22;1616;52.394;9.756;2023-12-22T10:57:16;5.70;99.90
3208;DHT22;1616;52.394;9.756;2023-12-22T10:59:45;5.70;99.90
3208;DHT22;1616;52.394;9.756;2023-12-22T11:02:17;5.80;99.90
3208;DHT22;1616;52.394;9.756;2023-12-22T11:04:57;5.80;99.90
3208;DHT22;1616;52.394;9.756;2023-12-22T11:07:24;5.80;99.90
3208;DHT22;1616;52.394;9.756;2023-12-22T11:09:56;5.80;99.90
3208;DHT22;1616;52.394;9.756;2023-12-22T11:12:23;5.70;99.90
3208;DHT22;1616;52.394;9.756;2023-12-22T11:14:51;5.80;99.90
3208;DHT22;1616;52.394;9.756;2023-12-22T11:17:22;5.90;99.90
3208;DHT22;1616;52.394;9.756;2023-12-22T11:19:49;5.90;99.90
3208;DHT22;1616;52.394;9.756;2023-12-22T11:22:17;6.00;99.90
3208;DHT22;1616;52.394;9.756;2023-12-22T11:24:46;6.00;99.90
3208;DHT22;1616;52.394;9.756;2023-12-22T11:27:13;6.10;99.90
3208;DHT22;1616;52.394;9.756;2023-12-22T11:29:42;6.10;99.90
3208;DHT22;1616;52.394;9.756;2023-12-22T11:32:10;6.20;99.90
3208;DHT22;1616;52.394;9.756;2023-12-22T11:34:38;6.20;99.90
3208;DHT22;1616;52.394;9.756;2023-12-22T11:37:05;6.30;99.90
3208;DHT22;1616;52.394;9.756;2023-12-22T11:39:32;6.40;99.90
3208;DHT22;1616;52.394;9.756;2023-12-22T11:41:59;6.40;99.90
3208;DHT22;1616;52.394;9.756;2023-12-22T11:44:24;6.50;99.90
3208;DHT22;1616;52.394;9.756;2023-12-22T11:47:03;6.60;99.90
3208;DHT22;1616;52.394;9.756;2023-12-22T11:49:33;6.70;99.90
3208;DHT22;1616;52.394;9.756;2023-12-22T11:51:59;6.70;99.90
3208;DHT22;1616;52.394;9.756;2023-12-22T12:00:02;6.80;99.90
3208;DHT22;1616;52.394;9.756;2023-12-22T12:02:36;6.80;99.90
3208;DHT22;1616;52.394;9.756;2023-12-22T12:05:03;6.90;99.90
3208;DHT22;1616;52.394;9.756;2023-12-22T12:07:46;6.90;99.90
3208;DHT22;1616;52.394;9.756;2023-12-22T12:13:16;7.00;99.90
3208;DHT22;1616;52.394;9.756;2023-12-22T12:15:47;7.10;99.90
3208;DHT22;1616;52.394;9.756;2023-12-22T12:18:13;7.10;99.90
3208;DHT22;1616;52.394;9.756;2023-12-22T12:20:40;7.10;99.90
3208;DHT22;1616;52.394;9.756;2023-12-22T12:23:06;7.10;99.90
3208;DHT22;1616;52.394;9.756;2023-12-22T12:25:33;7.00;99.90
3208;DHT22;1616;52.394;9.756;2023-12-22T12:28:02;6.90;99.90
3208;DHT22;1616;52.394;9.756;2023-12-22T12:30:28;6.90;99.90
3208;DHT22;1616;52.394;9.756;2023-12-22T12:32:54;6.90;99.90
3208;DHT22;1616;52.394;9.756;2023-12-22T12:35:20;6.90;99.90
3208;DHT22;1616;52.394;9.756;2023-12-22T12:37:47;6.90;99.90
3208;DHT22;1616;52.394;9.756;2023-12-22T12:40:14;6.90;99.90
3208;DHT22;1616;52.394;9.756;2023-12-22T12:42:42;6.90;99.90
3208;DHT22;1616;52.394;9.756;2023-12-22T12:45:09;6.80;99.90
3208;DHT22;1616;52.394;9.756;2023-12-22T12:47:34;6.80;99.90
3208;DHT22;1616;52.394;9.756;2023-12-22T12:50:01;6.80;99.90
3208;DHT22;1616;52.394;9.756;2023-12-22T12:52:27;6.90;99.90
3208;DHT22;1616;52.394;9.756;2023-12-22T12:54:53;6.80;99.90
3208;DHT22;1616;52.394;9.756;2023-12-22T12:57:19;6.90;99.90
3208;DHT22;1616;52.394;9.756;2023-12-22T12:59:49;6.90;99.90
3208;DHT22;1616;52.394;9.756;2023-12-22T13:02:18;6.90;99.90
3208;DHT22;1616;52.394;9.756;2023-12-22T13:04:44;6.90;99.90
3208;DHT22;1616;52.394;9.756;2023-12-22T13:07:10;6.90;99.90
3208;DHT22;1616;52.394;9.756;2023-12-22T13:09:39;6.90;99.90
3208;DHT22;1616;52.394;9.756;2023-12-22T13:12:07;6.90;99.90
3208;DHT22;1616;52.394;9.756;2023-12-22T13:14:33;6.90;99.90
3208;DHT22;1616;52.394;9.756;2023-12-22T13:16:59;7.00;99.90
3208;DHT22;1616;52.394;9.756;2023-12-22T13:19:25;7.00;99.90
3208;DHT22;1616;52.394;9.756;2023-12-22T13:21:55;7.10;99.90
3208;DHT22;1616;52.394;9.756;2023-12-22T13:24:21;7.10;99.90
3208;DHT22;1616;52.394;9.756;2023-12-22T13:27:02;7.10;99.90
3208;DHT22;1616;52.394;9.756;2023-12-22T13:29:29;7.10;99.90
3208;DHT22;1616;52.394;9.756;2023-12-22T13:31:55;7.10;99.90
3208;DHT22;1616;52.394;9.756;2023-12-22T13:34:22;7.20;99.90
3208;DHT22;1616;52.394;9.756;2023-12-22T13:36:48;7.10;99.90
3208;DHT22;1616;52.394;9.756;2023-12-22T13:39:14;7.20;99.90
3208;DHT22;1616;52.394;9.756;2023-12-22T13:41:43;7.20;99.90
3208;DHT22;1616;52.394;9.756;2023-12-22T13:44:13;7.20;99.90
3208;DHT22;1616;52.394;9.756;2023-12-22T13:46:39;7.20;99.90
3208;DHT22;1616;52.394;9.756;2023-12-22T13:49:10;7.20;99.90
3208;DHT22;1616;52.394;9.756;2023-12-22T13:51:53;7.20;99.90
3208;DHT22;1616;52.394;9.756;2023-12-22T13:54:19;7.10;99.90
3208;DHT22;1616;52.394;9.756;2023-12-22T13:56:45;7.10;99.90
3208;DHT22;1616;52.394;9.756;2023-12-22T13:59:11;7.00;99.90
3208;DHT22;1616;52.394;9.756;2023-12-22T14:01:37;7.00;99.90
3208;DHT22;1616;52.394;9.756;2023-12-22T14:04:03;6.90;99.90
3208;DHT22;1616;52.394;9.756;2023-12-22T14:06:29;6.90;99.90
3208;DHT22;1616;52.394;9.756;2023-12-22T14:08:55;6.90;99.90
3208;DHT22;1616;52.394;9.756;2023-12-22T14:11:22;6.90;99.90
3208;DHT22;1616;52.394;9.756;2023-12-22T14:13:48;6.90;99.90
3208;DHT22;1616;52.394;9.756;2023-12-22T14:16:14;7.00;99.90
3208;DHT22;1616;52.394;9.756;2023-12-22T14:18:41;7.00;99.90
3208;DHT22;1616;52.394;9.756;2023-12-22T14:21:09;7.00;99.90
3208;DHT22;1616;52.394;9.756;2023-12-22T14:23:35;7.00;99.90
3208;DHT22;1616;52.394;9.756;2023-12-22T14:26:00;7.00;99.90
3208;DHT22;1616;52.394;9.756;2023-12-22T14:28:26;7.00;99.90
3208;DHT22;1616;52.394;9.756;2023-12-22T14:30:53;6.90;99.90
3208;DHT22;1616;52.394;9.756;2023-12-22T14:33:18;7.00;99.90
3208;DHT22;1616;52.394;9.756;2023-12-22T14:35:44;6.90;99.90
3208;DHT22;1616;52.394;9.756;2023-12-22T14:38:10;7.00;99.90
3208;DHT22;1616;52.394;9.756;2023-12-22T14:40:36;7.00;99.90
3208;DHT22;1616;52.394;9.756;2023-12-22T14:43:01;7.00;99.90
3208;DHT22;1616;52.394;9.756;2023-12-22T14:45:28;7.00;99.90
3208;DHT22;1616;52.394;9.756;2023-12-22T14:47:53;7.10;99.90
3208;DHT22;1616;52.394;9.756;2023-12-22T14:50:19;7.10;99.90
3208;DHT22;1616;52.394;9.756;2023-12-22T14:52:45;7.10;99.90
3208;DHT22;1616;52.394;9.756;2023-12-22T14:55:11;7.10;99.90
3208;DHT22;1616;52.394;9.756;2023-12-22T14:57:37;7.10;99.90
3208;DHT22;1616;52.394;9.756;2023-12-22T15:00:04;7.20;99.90
3208;DHT22;1616;52.394;9.756;2023-12-22T15:02:29;7.20;99.90
3208;DHT22;1616;52.394;9.756;2023-12-22T15:04:55;7.20;99.90
3208;DHT22;1616;52.394;9.756;2023-12-22T15:07:21;7.20;99.90
3208;DHT22;1616;52.394;9.756;2023-12-22T15:09:47;7.20;99.90
3208;DHT22;1616;52.394;9.756;2023-12-22T15:12:16;7.20;99.90
3208;DHT22;1616;52.394;9.756;2023-12-22T15:14:45;7.20;99.90
3208;DHT22;1616;52.394;9.756;2023-12-22T15:17:11;7.30;99.90
3208;DHT22;1616;52.394;9.756;2023-12-22T15:19:40;7.30;99.90
3208;DHT22;1616;52.394;9.756;2023-12-22T15:22:08;7.30;99.90
3208;DHT22;1616;52.394;9.756;2023-12-22T15:24:37;7.30;99.90
3208;DHT22;1616;52.394;9.756;2023-12-22T15:27:06;7.20;99.90
3208;DHT22;1616;52.394;9.756;2023-12-22T15:29:32;7.10;99.90
3208;DHT22;1616;52.394;9.756;2023-12-22T15:31:58;7.10;99.90
3208;DHT22;1616;52.394;9.756;2023-12-22T15:34:25;7.10;99.90
3208;DHT22;1616;52.394;9.756;2023-12-22T15:36:51;7.00;99.90
3208;DHT22;1616;52.394;9.756;2023-12-22T15:39:17;7.00;99.90
3208;DHT22;1616;52.394;9.756;2023-12-22T15:41:44;7.00;99.90
3208;DHT22;1616;52.394;9.756;2023-12-22T15:44:10;6.80;99.90
3208;DHT22;1616;52.394;9.756;2023-12-22T15:46:36;6.40;99.90
3208;DHT22;1616;52.394;9.756;2023-12-22T15:49:01;6.20;99.90
3208;DHT22;1616;52.394;9.756;2023-12-22T15:51:27;6.00;99.90
3208;DHT22;1616;52.394;9.756;2023-12-22T15:53:52;5.80;99.90
3208;DHT22;1616;52.394;9.756;2023-12-22T15:56:18;5.70;99.90
3208;DHT22;1616;52.394;9.756;2023-12-22T15:58:44;5.50;99.90
3208;DHT22;1616;52.394;9.756;2023-12-22T16:01:09;5.40;99.90
3208;DHT22;1616;52.394;9.756;2023-12-22T16:03:38;5.40;99.90
3208;DHT22;1616;52.394;9.756;2023-12-22T16:06:07;5.30;99.90
3208;DHT22;1616;52.394;9.756;2023-12-22T16:08:33;5.30;99.90
3208;DHT22;1616;52.394;9.756;2023-12-22T16:11:04;5.30;99.90
3208;DHT22;1616;52.394;9.756;2023-12-22T16:13:31;5.30;99.90
3208;DHT22;1616;52.394;9.756;2023-12-22T16:15:57;5.20;99.90
3208;DHT22;1616;52.394;9.756;2023-12-22T16:18:34;5.20;99.90
3208;DHT22;1616;52.394;9.756;2023-12-22T16:21:04;5.20;99.90
3208;DHT22;1616;52.394;9.756;2023-12-22T16:23:29;5.20;99.90
3208;DHT22;1616;52.394;9.756;2023-12-22T16:25:55;5.20;99.90